Time;durP1;ratioP1;P1;durP2;ratioP2;P2;SDS_P1;SDS_P2;PMS_P1;PMS_P2;Temp;Humidity;BMP_temperature;BMP_pressure;BME280_temperature;BME280_humidity;BME280_pressure;Samples;Min_cycle;Max_cycle;Signal;HPM_P1;HPM_P2
2022/08/24 00:00:06;;;;;;;;;;;;;;;24.13;58.22;101423.63;1048980;28;645;-66
2022/08/24 00:00:56;;;;;;;;;;;;;;;24.12;58.52;101424.66;1049113;28;720;-66
2022/08/24 00:01:47;;;;;;;;;;;;;;;24.13;58.49;101419.03;1049050;28;621;-66
2022/08/24 00:02:37;;;;;;;;;;;;;;;24.13;58.51;101429.09;1049699;28;730;-66
2022/08/24 00:03:28;;;;;;;;;;;;;;;24.10;58.40;101422.09;1048966;28;668;-66
2022/08/24 00:04:18;;;;;;;;;;;;;;;24.10;58.56;101421.25;1049113;28;708;-66
2022/08/24 00:05:09;;;;;;;;;;;;;;;24.10;58.84;101422.09;1048320;28;619;-66
2022/08/24 00:05:59;;;;;;;;;;;;;;;24.08;58.45;101431.47;1049124;28;648;-66
2022/08/24 00:06:50;;;;;;;;;;;;;;;24.09;58.59;101425.84;1048423;28;653;-66
2022/08/24 00:07:40;;;;;;;;;;;;;;;24.07;59.01;101418.88;1049141;28;818;-66
2022/08/24 00:08:31;;;;;;;;;;;;;;;24.07;58.82;101425.16;1049124;28;681;-66
2022/08/24 00:09:21;;;;;;;;;;;;;;;24.06;58.68;101423.47;1048325;28;685;-66
2022/08/24 00:10:12;;;;;;;;;;;;;;;24.06;58.38;101422.63;1049045;28;638;-66
2022/08/24 00:11:02;;;;;;;;;;;;;;;24.08;58.86;101423.28;1049535;28;614;-66
2022/08/24 00:11:53;;;;;;;;;;;;;;;24.08;58.50;101434.19;1049079;28;680;-66
2022/08/24 00:12:43;;;;;;;;;;;;;;;24.08;58.47;101424.16;1048607;28;606;-66
2022/08/24 00:13:34;;;;;;;;;;;;;;;24.06;58.39;101431.63;1044638;28;709;-67
2022/08/24 00:14:24;;;;;;;;;;;;;;;24.06;58.64;101428.91;1045198;28;836;-66
2022/08/24 00:15:15;;;;;;;;;;;;;;;24.06;58.65;101425.34;1048994;28;673;-66
2022/08/24 00:16:05;;;;;;;;;;;;;;;24.05;58.78;101426.38;1049020;28;697;-66
2022/08/24 00:16:56;;;;;;;;;;;;;;;24.04;58.59;101427.38;1049547;28;732;-66
2022/08/24 00:17:46;;;;;;;;;;;;;;;24.04;58.54;101433.69;1048546;28;693;-66
2022/08/24 00:18:37;;;;;;;;;;;;;;;24.04;58.89;101422.78;1050194;28;638;-66
2022/08/24 00:19:27;;;;;;;;;;;;;;;24.05;58.92;101429.09;1049055;28;649;-66
2022/08/24 00:20:18;;;;;;;;;;;;;;;24.05;58.65;101429.09;1049528;28;675;-66
2022/08/24 00:21:08;;;;;;;;;;;;;;;24.03;58.93;101429.25;1050150;28;653;-66
2022/08/24 00:21:59;;;;;;;;;;;;;;;24.03;58.71;101431.13;1049032;28;713;-66
2022/08/24 00:22:49;;;;;;;;;;;;;;;24.01;58.80;101423.13;1048474;28;678;-66
2022/08/24 00:23:40;;;;;;;;;;;;;;;24.01;58.67;101422.28;1048545;28;1902;-66
2022/08/24 00:24:30;;;;;;;;;;;;;;;24.02;58.78;101421.25;1049008;28;658;-66
2022/08/24 00:25:20;;;;;;;;;;;;;;;24.00;58.68;101429.63;1049039;28;649;-66
2022/08/24 00:26:11;;;;;;;;;;;;;;;24.00;58.92;101421.47;1048271;28;697;-66
2022/08/24 00:27:01;;;;;;;;;;;;;;;23.97;58.93;101421.81;1048596;28;693;-66
2022/08/24 00:27:52;;;;;;;;;;;;;;;23.96;59.02;101419.25;1048247;28;603;-66
2022/08/24 00:28:42;;;;;;;;;;;;;;;23.97;59.29;101423.66;1049023;28;622;-66
2022/08/24 00:29:33;;;;;;;;;;;;;;;23.98;58.99;101417.19;1044458;28;821;-66
2022/08/24 00:30:23;;;;;;;;;;;;;;;23.97;58.77;101412.78;1043924;28;649;-66
2022/08/24 00:31:14;;;;;;;;;;;;;;;23.98;58.59;101414.47;1048501;28;634;-66
2022/08/24 00:32:04;;;;;;;;;;;;;;;23.96;58.81;101419.25;1048928;28;658;-66
2022/08/24 00:32:55;;;;;;;;;;;;;;;23.97;58.74;101416.34;1048901;28;716;-66
2022/08/24 00:33:46;;;;;;;;;;;;;;;23.96;59.13;101420.09;1049010;28;657;-67
2022/08/24 00:34:37;;;;;;;;;;;;;;;23.96;58.62;101413.81;1049597;28;623;-66
2022/08/24 00:35:27;;;;;;;;;;;;;;;23.93;59.17;101419.59;1048944;28;716;-66
2022/08/24 00:36:20;;;;;;;;;;;;;;;23.93;59.25;101422.31;1048826;28;725;-66
2022/08/24 00:37:10;;;;;;;;;;;;;;;23.92;59.05;101418.72;1049010;28;570;-67
2022/08/24 00:38:01;;;;;;;;;;;;;;;23.92;59.05;101418.72;1049546;28;817;-66
2022/08/24 00:38:51;;;;;;;;;;;;;;;23.92;58.80;101416.00;1049003;28;626;-66
2022/08/24 00:39:42;;;;;;;;;;;;;;;23.93;58.72;101427.75;1048905;28;674;-66
2022/08/24 00:40:35;;;;;;;;;;;;;;;23.92;58.78;101415.16;1048848;28;657;-66
2022/08/24 00:41:25;;;;;;;;;;;;;;;23.91;59.11;101422.47;1048625;28;732;-67
2022/08/24 00:42:16;;;;;;;;;;;;;;;23.91;59.25;101421.63;1048899;28;662;-67
2022/08/24 00:43:06;;;;;;;;;;;;;;;23.90;59.25;101420.78;1048874;28;688;-67
2022/08/24 00:43:57;;;;;;;;;;;;;;;23.89;58.96;101419.94;1044352;28;1898;-67
2022/08/24 00:44:47;;;;;;;;;;;;;;;23.89;59.22;101417.19;1043931;28;709;-67
2022/08/24 00:45:38;;;;;;;;;;;;;;;23.91;59.17;101422.47;1048621;28;669;-67
2022/08/24 00:46:28;;;;;;;;;;;;;;;23.91;59.21;101411.59;1048970;28;656;-67
2022/08/24 00:47:19;;;;;;;;;;;;;;;23.91;58.93;101427.91;1048910;28;676;-67
2022/08/24 00:48:10;;;;;;;;;;;;;;;23.90;58.95;101426.22;1048950;28;649;-67
2022/08/24 00:49:00;;;;;;;;;;;;;;;23.92;58.87;101417.88;1048686;28;1140;-67
2022/08/24 00:49:50;;;;;;;;;;;;;;;23.88;59.08;101417.38;1050034;28;735;-67
2022/08/24 00:50:41;;;;;;;;;;;;;;;23.88;59.19;101420.94;1049563;28;715;-67
2022/08/24 00:51:31;;;;;;;;;;;;;;;23.86;59.27;101422.97;1050100;28;613;-67
2022/08/24 00:52:23;;;;;;;;;;;;;;;23.86;59.22;101417.53;1049986;28;652;-67
2022/08/24 00:53:14;;;;;;;;;;;;;;;23.86;59.25;101424.84;1049932;28;621;-67
2022/08/24 00:54:04;;;;;;;;;;;;;;;23.84;59.21;101419.59;1050040;28;699;-67
2022/08/24 00:54:54;;;;;;;;;;;;;;;23.86;58.91;101414.81;1048923;28;705;-67
2022/08/24 00:55:45;;;;;;;;;;;;;;;23.84;59.48;101414.13;1049284;28;695;-67
2022/08/24 00:56:35;;;;;;;;;;;;;;;23.84;59.15;101416.00;1049225;28;626;-67
2022/08/24 00:57:26;;;;;;;;;;;;;;;23.84;59.42;101416.84;1049360;28;795;-67
2022/08/24 00:58:16;;;;;;;;;;;;;;;23.86;59.07;101416.69;1047807;28;657;-67
2022/08/24 00:59:07;;;;;;;;;;;;;;;23.85;59.40;101415.84;1050065;28;981;-67
2022/08/24 00:59:57;;;;;;;;;;;;;;;23.84;59.08;101416.84;1050109;28;964;-67
2022/08/24 01:00:48;;;;;;;;;;;;;;;23.85;59.31;101417.72;1050052;28;715;-67
2022/08/24 01:01:38;;;;;;;;;;;;;;;23.83;59.10;101420.59;1049527;28;684;-67
2022/08/24 01:02:28;;;;;;;;;;;;;;;23.84;59.02;101421.44;1050006;28;660;-67
2022/08/24 01:03:19;;;;;;;;;;;;;;;23.82;59.26;101418.94;1049403;28;854;-67
2022/08/24 01:04:09;;;;;;;;;;;;;;;23.81;59.46;101422.69;1048958;28;619;-67
2022/08/24 01:05:00;;;;;;;;;;;;;;;23.82;59.23;101424.38;1050169;28;605;-67
2022/08/24 01:05:51;;;;;;;;;;;;;;;23.82;59.10;101418.94;1050024;28;680;-67
2022/08/24 01:06:41;;;;;;;;;;;;;;;23.80;59.61;101414.69;1048930;28;637;-67
2022/08/24 01:07:32;;;;;;;;;;;;;;;23.80;59.09;101420.13;1050024;28;633;-67
2022/08/24 01:08:22;;;;;;;;;;;;;;;23.80;59.44;101412.81;1050051;28;600;-67
2022/08/24 01:09:13;;;;;;;;;;;;;;;23.80;59.34;101415.53;1048792;28;625;-67
2022/08/24 01:10:03;;;;;;;;;;;;;;;23.81;59.38;101414.50;1050075;28;637;-67
2022/08/24 01:10:54;;;;;;;;;;;;;;;23.80;59.44;101412.81;1049972;28;656;-67
2022/08/24 01:11:44;;;;;;;;;;;;;;;23.78;59.59;101406.69;1047607;28;602;-66
2022/08/24 01:12:34;;;;;;;;;;;;;;;23.80;59.13;101411.97;1049914;28;1208;-66
2022/08/24 01:13:25;;;;;;;;;;;;;;;23.78;59.64;101405.84;1048163;28;542;-66
2022/08/24 01:14:15;;;;;;;;;;;;;;;23.77;59.62;101410.41;1048830;28;634;-66
2022/08/24 01:15:06;;;;;;;;;;;;;;;23.76;59.24;101408.72;1048844;28;673;-66
2022/08/24 01:15:56;;;;;;;;;;;;;;;23.77;59.58;101412.28;1044951;28;635;-66
2022/08/24 01:19:05;;;;;;;;;;;;;;;23.77;59.42;101410.41;1048791;28;681;-66
2022/08/24 01:19:55;;;;;;;;;;;;;;;23.75;59.32;101406.16;1048900;28;775;-66
2022/08/24 01:20:46;;;;;;;;;;;;;;;23.75;59.56;101407.03;1048911;28;685;-66
2022/08/24 01:21:36;;;;;;;;;;;;;;;23.76;59.60;101402.44;1048837;28;670;-66
2022/08/24 01:22:27;;;;;;;;;;;;;;;23.75;59.55;101407.03;1048671;28;728;-67
2022/08/24 01:23:17;;;;;;;;;;;;;;;23.75;59.30;101407.03;1048872;28;693;-66
2022/08/24 01:24:08;;;;;;;;;;;;;;;23.73;59.72;101406.34;1048036;28;779;-66
2022/08/24 01:24:58;;;;;;;;;;;;;;;23.73;59.72;101398.16;1048401;28;694;-66
2022/08/24 01:25:48;;;;;;;;;;;;;;;23.74;59.44;101408.03;1048920;28;650;-66
2022/08/24 01:26:39;;;;;;;;;;;;;;;23.74;59.27;101404.47;1048685;28;626;-66
2022/08/24 01:27:29;;;;;;;;;;;;;;;23.74;59.72;101404.47;1044934;28;748;-66
2022/08/24 01:28:20;;;;;;;;;;;;;;;23.70;59.51;101403.94;1044936;28;624;-66
2022/08/24 01:29:10;;;;;;;;;;;;;;;23.71;59.41;101405.66;1048207;28;622;-66
2022/08/24 01:30:01;;;;;;;;;;;;;;;23.71;59.82;101404.81;1048856;28;712;-66
2022/08/24 01:30:51;;;;;;;;;;;;;;;23.70;59.34;101403.94;1048813;28;677;-66
2022/08/24 01:31:41;;;;;;;;;;;;;;;23.71;59.20;101411.09;1048385;28;736;-66
2022/08/24 01:32:32;;;;;;;;;;;;;;;23.69;59.78;101407.69;1048632;28;664;-66
2022/08/24 01:33:23;;;;;;;;;;;;;;;23.70;59.45;101403.09;1048357;28;646;-66
2022/08/24 01:34:13;;;;;;;;;;;;;;;23.72;59.44;101409.22;1048848;28;629;-66
2022/08/24 01:35:04;;;;;;;;;;;;;;;23.69;59.53;101407.69;1048880;28;642;-66
2022/08/24 01:35:54;;;;;;;;;;;;;;;23.69;59.91;101415.84;1048880;28;705;-66
2022/08/24 01:36:45;;;;;;;;;;;;;;;23.69;59.80;101412.28;1048740;28;661;-67
2022/08/24 01:37:35;;;;;;;;;;;;;;;23.68;59.49;101408.72;1048743;28;626;-66
2022/08/24 01:38:26;;;;;;;;;;;;;;;23.68;59.67;101416.88;1048863;28;686;-66
2022/08/24 01:39:16;;;;;;;;;;;;;;;23.68;59.80;101416.03;1044316;28;766;-66
2022/08/24 01:40:07;;;;;;;;;;;;;;;23.66;59.51;101412.63;1045605;28;656;-66
2022/08/24 01:40:57;;;;;;;;;;;;;;;23.66;59.62;101412.63;1049369;28;679;-66
2022/08/24 01:41:48;;;;;;;;;;;;;;;23.65;59.67;101409.06;1048742;28;681;-66
2022/08/24 01:42:38;;;;;;;;;;;;;;;23.65;59.65;101411.78;1048764;28;630;-66
2022/08/24 01:43:29;;;;;;;;;;;;;;;23.66;59.79;101413.47;1044294;28;728;-66
2022/08/24 01:44:19;;;;;;;;;;;;;;;23.66;59.69;101416.19;1044294;28;622;-66
2022/08/24 01:45:10;;;;;;;;;;;;;;;23.64;59.74;101417.41;1049234;28;622;-66
2022/08/24 01:46:00;;;;;;;;;;;;;;;23.62;59.76;101412.13;1048867;28;646;-66
2022/08/24 01:46:53;;;;;;;;;;;;;;;23.64;59.97;101414.69;1048707;28;649;-66
2022/08/24 01:47:44;;;;;;;;;;;;;;;23.63;59.83;101413.84;1048799;28;685;-66
2022/08/24 01:48:34;;;;;;;;;;;;;;;23.62;59.77;101412.13;1048735;28;737;-66
2022/08/24 01:49:25;;;;;;;;;;;;;;;23.62;60.06;101411.28;1044628;28;653;-66
2022/08/24 01:50:16;;;;;;;;;;;;;;;23.60;59.46;101411.47;1044581;28;666;-66
2022/08/24 01:51:06;;;;;;;;;;;;;;;23.59;60.01;101417.91;1044005;28;630;-66
2022/08/24 01:51:56;;;;;;;;;;;;;;;23.60;59.83;101414.19;1044762;28;696;-66
2022/08/24 01:52:47;;;;;;;;;;;;;;;23.61;59.72;101415.88;1044570;28;670;-66
2022/08/24 01:53:37;;;;;;;;;;;;;;;23.60;59.68;101416.91;1044474;28;633;-66
2022/08/24 01:54:29;;;;;;;;;;;;;;;23.58;60.05;101421.66;1044698;28;626;-66
2022/08/24 01:55:20;;;;;;;;;;;;;;;23.59;59.82;101419.78;1044170;28;638;-66
2022/08/24 01:56:10;;;;;;;;;;;;;;;23.59;60.09;101422.50;1044618;28;614;-66
2022/08/24 01:57:01;;;;;;;;;;;;;;;23.58;59.65;101421.66;1044727;28;631;-66
2022/08/24 01:57:51;;;;;;;;;;;;;;;23.59;60.17;101415.19;1044523;28;674;-66
2022/08/24 01:58:41;;;;;;;;;;;;;;;23.58;59.80;101418.94;1044656;28;646;-66
2022/08/24 01:59:32;;;;;;;;;;;;;;;23.58;59.77;101418.09;1044446;28;665;-66
2022/08/24 02:00:22;;;;;;;;;;;;;;;23.56;60.01;101423.69;1044578;28;701;-66
2022/08/24 02:01:13;;;;;;;;;;;;;;;23.56;60.04;101425.56;1045163;28;721;-66
2022/08/24 02:02:03;;;;;;;;;;;;;;;23.54;59.90;101421.13;1044547;28;646;-66
2022/08/24 02:02:55;;;;;;;;;;;;;;;23.54;60.12;101421.13;1044709;28;689;-66
2022/08/24 02:03:46;;;;;;;;;;;;;;;23.56;60.19;101431.84;1045058;28;1987;-66
2022/08/24 02:04:36;;;;;;;;;;;;;;;23.56;60.06;101423.69;1044503;28;800;-66
2022/08/24 02:05:27;;;;;;;;;;;;;;;23.55;59.88;101422.00;1044559;28;626;-66
2022/08/24 02:06:18;;;;;;;;;;;;;;;23.53;59.96;101432.19;1044602;28;623;-66
2022/08/24 02:07:09;;;;;;;;;;;;;;;23.54;59.91;101433.91;1044178;28;665;-66
2022/08/24 02:07:59;;;;;;;;;;;;;;;23.56;60.13;101433.72;1040715;28;662;-66
2022/08/24 02:08:50;;;;;;;;;;;;;;;23.54;60.05;101434.75;1040372;28;662;-66
2022/08/24 02:09:40;;;;;;;;;;;;;;;23.54;59.67;101442.91;1041331;28;649;-66
2022/08/24 02:10:31;;;;;;;;;;;;;;;23.53;59.88;101432.19;1041323;28;700;-67
2022/08/24 02:11:21;;;;;;;;;;;;;;;23.52;60.12;101438.66;1044550;28;681;-67
2022/08/24 02:12:12;;;;;;;;;;;;;;;23.52;60.36;101430.50;1044579;28;1220;-67
2022/08/24 02:13:02;;;;;;;;;;;;;;;23.52;60.23;101431.34;1045547;28;689;-67
2022/08/24 02:13:53;;;;;;;;;;;;;;;23.51;60.23;101431.47;1045915;28;618;-67
2022/08/24 02:14:43;;;;;;;;;;;;;;;23.51;60.03;101431.47;1045937;28;598;-67
2022/08/24 02:15:35;;;;;;;;;;;;;;;23.51;60.33;101423.31;1045877;28;677;-67
2022/08/24 02:16:26;;;;;;;;;;;;;;;23.51;60.14;101431.47;1045889;28;644;-67
2022/08/24 02:17:17;;;;;;;;;;;;;;;23.50;60.34;101429.78;1045894;28;634;-67
2022/08/24 02:18:08;;;;;;;;;;;;;;;23.48;60.23;101429.09;1045934;28;626;-67
2022/08/24 02:18:58;;;;;;;;;;;;;;;23.50;60.08;101430.63;1049757;28;613;-67
2022/08/24 02:19:49;;;;;;;;;;;;;;;23.49;60.32;101431.63;1049820;28;688;-67
2022/08/24 02:20:39;;;;;;;;;;;;;;;23.49;60.27;101436.22;1045999;28;605;-67
2022/08/24 02:21:30;;;;;;;;;;;;;;;23.47;60.14;101430.09;1045839;28;686;-66
2022/08/24 02:22:20;;;;;;;;;;;;;;;23.47;59.97;101438.25;1045924;28;684;-67
2022/08/24 02:23:11;;;;;;;;;;;;;;;23.48;60.13;101431.81;1045505;28;697;-67
2022/08/24 02:24:01;;;;;;;;;;;;;;;23.46;60.02;101434.72;1045807;28;1893;-67
2022/08/24 02:24:51;;;;;;;;;;;;;;;23.46;60.18;101434.72;1045816;28;660;-67
2022/08/24 02:25:42;;;;;;;;;;;;;;;23.46;60.21;101426.56;1045861;28;709;-67
2022/08/24 02:26:32;;;;;;;;;;;;;;;23.46;60.05;101432.00;1045929;28;680;-67
2022/08/24 02:27:23;;;;;;;;;;;;;;;23.47;59.95;101438.25;1045895;28;678;-67
2022/08/24 02:28:13;;;;;;;;;;;;;;;23.47;60.27;101430.09;1045868;28;607;-67
2022/08/24 02:29:04;;;;;;;;;;;;;;;23.47;59.90;101430.09;1049665;28;654;-67
2022/08/24 02:29:54;;;;;;;;;;;;;;;23.46;60.24;101432.00;1049753;28;672;-67
2022/08/24 02:30:45;;;;;;;;;;;;;;;23.46;60.08;101439.31;1046021;28;661;-67
2022/08/24 02:31:35;;;;;;;;;;;;;;;23.45;59.95;101427.59;1045930;28;641;-67
2022/08/24 02:32:26;;;;;;;;;;;;;;;23.42;60.04;101427.91;1045850;28;661;-67
2022/08/24 02:33:16;;;;;;;;;;;;;;;23.44;60.46;101435.91;1049681;28;606;-67
2022/08/24 02:34:07;;;;;;;;;;;;;;;23.44;60.06;101436.75;1049771;28;629;-67
2022/08/24 02:34:58;;;;;;;;;;;;;;;23.43;60.52;101434.22;1046444;28;613;-67
2022/08/24 02:35:48;;;;;;;;;;;;;;;23.41;60.32;101431.66;1045879;28;741;-67
2022/08/24 02:36:39;;;;;;;;;;;;;;;23.41;60.20;101428.09;1045217;28;704;-67
2022/08/24 02:37:29;;;;;;;;;;;;;;;23.41;60.18;101422.63;1045355;28;735;-67
2022/08/24 02:38:20;;;;;;;;;;;;;;;23.42;60.06;101429.78;1045922;28;622;-66
2022/08/24 02:39:10;;;;;;;;;;;;;;;23.41;60.17;101430.81;1045828;28;676;-67
2022/08/24 02:40:01;;;;;;;;;;;;;;;23.42;60.56;101427.06;1049780;28;776;-66
2022/08/24 02:40:51;;;;;;;;;;;;;;;23.41;60.12;101428.09;1049691;28;677;-67
2022/08/24 02:41:42;;;;;;;;;;;;;;;23.40;60.51;101429.94;1045985;28;937;-67
2022/08/24 02:42:32;;;;;;;;;;;;;;;23.39;60.18;101428.25;1045955;28;645;-66
2022/08/24 02:43:23;;;;;;;;;;;;;;;23.39;60.46;101428.25;1045928;28;645;-66
2022/08/24 02:44:13;;;;;;;;;;;;;;;23.40;60.60;101432.66;1045912;28;688;-67
2022/08/24 02:45:04;;;;;;;;;;;;;;;23.39;60.58;101433.69;1045836;28;653;-67
2022/08/24 02:45:54;;;;;;;;;;;;;;;23.40;60.17;101432.66;1045798;28;622;-68
2022/08/24 02:46:45;;;;;;;;;;;;;;;23.39;60.32;101428.25;1045901;28;747;-67
2022/08/24 02:47:35;;;;;;;;;;;;;;;23.37;60.16;101430.28;1045747;28;645;-67
2022/08/24 02:48:25;;;;;;;;;;;;;;;23.36;60.59;101439.47;1045784;28;642;-67
2022/08/24 02:49:17;;;;;;;;;;;;;;;23.38;60.72;101433.84;1045854;28;697;-67
2022/08/24 02:50:08;;;;;;;;;;;;;;;23.37;60.33;101432.16;1045786;28;637;-66
2022/08/24 02:50:58;;;;;;;;;;;;;;;23.36;60.50;101427.72;1045755;28;626;-67
2022/08/24 02:51:49;;;;;;;;;;;;;;;23.37;60.04;101435.72;1045694;28;684;-67
2022/08/24 02:52:39;;;;;;;;;;;;;;;23.37;60.61;101434.88;1049701;28;708;-67
2022/08/24 02:53:30;;;;;;;;;;;;;;;23.37;60.23;101440.31;1049654;28;652;-67
2022/08/24 02:54:20;;;;;;;;;;;;;;;23.34;60.23;101436.06;1044666;28;637;-67
2022/08/24 02:55:11;;;;;;;;;;;;;;;23.35;60.43;101434.19;1045827;28;680;-67
2022/08/24 02:56:01;;;;;;;;;;;;;;;23.34;60.28;101436.06;1045691;28;624;-67
2022/08/24 02:56:51;;;;;;;;;;;;;;;23.34;60.07;101435.19;1045705;28;658;-67
2022/08/24 02:57:42;;;;;;;;;;;;;;;23.34;60.26;101430.63;1045796;28;632;-67
2022/08/24 02:58:32;;;;;;;;;;;;;;;23.34;60.37;101427.03;1045716;28;626;-67
2022/08/24 02:59:23;;;;;;;;;;;;;;;23.34;60.43;101437.91;1045829;28;622;-67
2022/08/24 03:00:13;;;;;;;;;;;;;;;23.33;60.49;101428.91;1045733;28;781;-67
2022/08/24 03:01:04;;;;;;;;;;;;;;;23.33;60.70;101433.50;1045748;28;1091;-66
2022/08/24 03:01:54;;;;;;;;;;;;;;;23.33;60.25;101428.06;1045675;28;630;-67
2022/08/24 03:02:45;;;;;;;;;;;;;;;23.32;60.53;101432.66;1045696;28;712;-66
2022/08/24 03:03:35;;;;;;;;;;;;;;;23.31;60.27;101435.53;1049649;28;680;-66
2022/08/24 03:04:26;;;;;;;;;;;;;;;23.32;60.30;101437.22;1049597;28;661;-66
2022/08/24 03:05:16;;;;;;;;;;;;;;;23.32;60.78;101439.97;1045844;28;665;-66
2022/08/24 03:06:06;;;;;;;;;;;;;;;23.31;60.81;101438.25;1045779;28;657;-67
2022/08/24 03:06:57;;;;;;;;;;;;;;;23.30;60.81;101440.13;1045782;28;719;-68
2022/08/24 03:07:48;;;;;;;;;;;;;;;23.30;60.20;101439.28;1045738;28;645;-67
2022/08/24 03:08:38;;;;;;;;;;;;;;;23.29;60.46;101437.59;1045714;28;681;-67
2022/08/24 03:09:29;;;;;;;;;;;;;;;23.28;60.58;101442.19;1045674;28;709;-67
2022/08/24 03:10:20;;;;;;;;;;;;;;;23.29;60.78;101437.59;1049609;28;625;-66
2022/08/24 03:11:10;;;;;;;;;;;;;;;23.27;60.96;101439.63;1049587;28;641;-66
2022/08/24 03:12:01;;;;;;;;;;;;;;;23.26;60.88;101433.34;1045818;28;766;-66
2022/08/24 03:12:51;;;;;;;;;;;;;;;23.27;60.40;101445.06;1045030;28;787;-67
2022/08/24 03:13:41;;;;;;;;;;;;;;;23.26;60.74;101437.94;1045741;28;618;-66
2022/08/24 03:14:32;;;;;;;;;;;;;;;23.27;60.15;101439.63;1045771;28;612;-67
2022/08/24 03:15:22;;;;;;;;;;;;;;;23.27;60.47;101436.91;1045851;28;665;-67
2022/08/24 03:16:13;;;;;;;;;;;;;;;23.26;60.88;101435.22;1045693;28;712;-66
2022/08/24 03:17:03;;;;;;;;;;;;;;;23.26;60.77;101437.94;1045020;28;646;-67
2022/08/24 03:17:54;;;;;;;;;;;;;;;23.25;60.64;101438.94;1045758;28;649;-66
2022/08/24 03:18:44;;;;;;;;;;;;;;;23.25;60.59;101428.91;1045684;28;641;-67
2022/08/24 03:19:35;;;;;;;;;;;;;;;23.26;60.81;101433.34;1045859;28;782;-66
2022/08/24 03:20:25;;;;;;;;;;;;;;;23.25;60.84;101436.22;1045718;28;621;-66
2022/08/24 03:21:16;;;;;;;;;;;;;;;23.25;60.66;101447.09;1045215;28;665;-67
2022/08/24 03:22:06;;;;;;;;;;;;;;;23.25;60.77;101436.22;1045063;28;630;-67
2022/08/24 03:22:57;;;;;;;;;;;;;;;23.25;60.84;101438.94;1045629;28;649;-67
2022/08/24 03:23:47;;;;;;;;;;;;;;;23.23;60.91;101432.81;1044943;28;1973;-67
2022/08/24 03:24:38;;;;;;;;;;;;;;;23.23;60.54;101435.53;1045258;28;634;-67
2022/08/24 03:25:28;;;;;;;;;;;;;;;23.22;61.10;101431.13;1045667;28;625;-67
2022/08/24 03:26:19;;;;;;;;;;;;;;;23.22;60.86;101436.56;1045655;28;720;-67
2022/08/24 03:27:10;;;;;;;;;;;;;;;23.20;60.85;101437.56;1044915;28;646;-69
2022/08/24 03:28:01;;;;;;;;;;;;;;;23.20;60.97;101432.13;1045614;28;630;-66
2022/08/24 03:28:51;;;;;;;;;;;;;;;23.21;60.92;101435.69;1045597;28;871;-67
2022/08/24 03:29:42;;;;;;;;;;;;;;;23.20;60.72;101437.56;1045743;28;712;-67
2022/08/24 03:30:32;;;;;;;;;;;;;;;23.20;60.56;101436.72;1045625;28;648;-66
2022/08/24 03:31:23;;;;;;;;;;;;;;;23.19;60.93;101435.88;1045642;28;693;-67
2022/08/24 03:32:13;;;;;;;;;;;;;;;23.20;60.56;101434.00;1045630;28;686;-66
2022/08/24 03:33:04;;;;;;;;;;;;;;;23.20;60.66;101434.84;1045316;28;653;-67
2022/08/24 03:33:54;;;;;;;;;;;;;;;23.20;60.81;101432.13;1045289;28;622;-66
2022/08/24 03:34:45;;;;;;;;;;;;;;;23.18;60.66;101442.31;1045579;28;626;-66
2022/08/24 03:35:35;;;;;;;;;;;;;;;23.18;60.97;101431.44;1044487;28;632;-67
2022/08/24 03:36:26;;;;;;;;;;;;;;;23.18;60.56;101436.03;1045635;28;689;-67
2022/08/24 03:37:16;;;;;;;;;;;;;;;23.18;60.66;101428.72;1045646;28;673;-67
2022/08/24 03:38:07;;;;;;;;;;;;;;;23.17;60.71;101435.19;1045636;28;791;-66
2022/08/24 03:38:57;;;;;;;;;;;;;;;23.18;60.58;101430.59;1044989;28;728;-67
2022/08/24 03:39:49;;;;;;;;;;;;;;;23.17;61.01;101431.59;1045553;28;626;-66
2022/08/24 03:40:40;;;;;;;;;;;;;;;23.17;60.99;101437.03;1045278;28;628;-67
2022/08/24 03:41:31;;;;;;;;;;;;;;;23.17;60.76;101432.47;1045317;28;661;-67
2022/08/24 03:42:21;;;;;;;;;;;;;;;23.16;60.70;101429.91;1045523;28;648;-66
2022/08/24 03:43:44;;;;;;;;;;;;;;;23.16;60.59;101433.47;1045532;28;622;-67
2022/08/24 03:44:24;;;;;;;;;;;;;;;23.13;61.19;101428.38;1045619;28;697;-67
2022/08/24 03:45:15;;;;;;;;;;;;;;;23.14;60.67;101427.34;1045639;28;776;-67
2022/08/24 03:46:06;;;;;;;;;;;;;;;23.15;60.77;101437.22;1045472;28;665;-67
2022/08/24 03:46:56;;;;;;;;;;;;;;;23.14;60.78;101424.63;1045560;28;677;-67
2022/08/24 03:47:47;;;;;;;;;;;;;;;23.14;61.23;101435.50;1045710;28;684;-67
2022/08/24 03:48:38;;;;;;;;;;;;;;;23.13;61.09;101433.81;1045638;28;621;-67
2022/08/24 03:49:29;;;;;;;;;;;;;;;23.12;60.80;101428.53;1044945;28;728;-66
2022/08/24 03:50:19;;;;;;;;;;;;;;;23.14;61.23;101429.22;1044756;28;688;-66
2022/08/24 03:51:10;;;;;;;;;;;;;;;23.13;60.74;101433.81;1041720;28;673;-66
2022/08/24 03:52:00;;;;;;;;;;;;;;;23.14;61.09;101434.66;1039902;28;701;-66
2022/08/24 03:52:51;;;;;;;;;;;;;;;23.12;60.65;101429.38;1045104;28;670;-66
2022/08/24 03:53:41;;;;;;;;;;;;;;;23.11;61.12;101433.13;1045556;28;630;-66
2022/08/24 03:54:32;;;;;;;;;;;;;;;23.11;60.80;101432.28;1044917;28;743;-66
2022/08/24 03:55:22;;;;;;;;;;;;;;;23.12;61.24;101431.25;1044892;28;815;-66
2022/08/24 03:56:12;;;;;;;;;;;;;;;23.12;61.26;101437.53;1045492;28;601;-66
2022/08/24 03:57:03;;;;;;;;;;;;;;;23.11;60.95;101432.28;1045520;28;641;-66
2022/08/24 03:57:53;;;;;;;;;;;;;;;23.10;61.12;101439.59;1045300;28;625;-66
2022/08/24 03:58:44;;;;;;;;;;;;;;;23.11;60.87;101437.72;1044150;28;662;-66
2022/08/24 03:59:34;;;;;;;;;;;;;;;23.11;60.69;101435.84;1044275;28;684;-66
2022/08/24 04:00:24;;;;;;;;;;;;;;;23.10;60.83;101439.59;1045404;28;649;-66
2022/08/24 04:01:16;;;;;;;;;;;;;;;23.10;60.81;101428.72;1045467;28;673;-66
2022/08/24 04:02:06;;;;;;;;;;;;;;;23.09;61.07;101435.19;1045502;28;634;-66
2022/08/24 04:02:57;;;;;;;;;;;;;;;23.10;60.96;101438.75;1045569;28;767;-66
2022/08/24 04:03:47;;;;;;;;;;;;;;;23.09;60.87;101434.31;1045517;28;1906;-66
2022/08/24 04:04:38;;;;;;;;;;;;;;;23.09;61.22;101434.31;1045052;28;704;-66
2022/08/24 04:05:28;;;;;;;;;;;;;;;23.09;61.17;101439.78;1045502;28;626;-66
2022/08/24 04:06:19;;;;;;;;;;;;;;;23.08;61.15;101441.63;1045577;28;646;-66
2022/08/24 04:07:10;;;;;;;;;;;;;;;23.07;60.92;101434.50;1045321;28;653;-66
2022/08/24 04:08:00;;;;;;;;;;;;;;;23.07;60.84;101442.66;1045179;28;661;-66
2022/08/24 04:08:51;;;;;;;;;;;;;;;23.08;61.16;101443.50;1044256;28;697;-66
2022/08/24 04:09:42;;;;;;;;;;;;;;;23.05;60.90;101444.69;1045523;28;669;-66
2022/08/24 04:10:32;;;;;;;;;;;;;;;23.05;61.22;101439.25;1045500;28;673;-66
2022/08/24 04:11:23;;;;;;;;;;;;;;;23.04;61.09;101442.97;1045488;28;688;-66
2022/08/24 04:12:13;;;;;;;;;;;;;;;23.05;61.04;101436.53;1045365;28;1205;-66
2022/08/24 04:13:05;;;;;;;;;;;;;;;23.05;61.03;101441.97;1044865;28;697;-66
2022/08/24 04:13:55;;;;;;;;;;;;;;;23.07;61.14;101447.25;1044850;28;663;-66
2022/08/24 04:14:46;;;;;;;;;;;;;;;23.06;61.29;101437.38;1044419;28;673;-66
2022/08/24 04:15:36;;;;;;;;;;;;;;;23.04;61.33;101444.84;1041054;28;606;-66
2022/08/24 04:16:27;;;;;;;;;;;;;;;23.04;61.26;101451.13;1040001;28;634;-66
2022/08/24 04:17:18;;;;;;;;;;;;;;;23.04;61.37;101445.69;1044924;28;670;-66
2022/08/24 04:18:08;;;;;;;;;;;;;;;23.03;60.86;101449.44;1044819;28;654;-66
2022/08/24 04:18:59;;;;;;;;;;;;;;;23.03;60.79;101444.00;1040532;28;705;-66
2022/08/24 04:19:58;;;;;;;;;;;;;;;23.03;61.33;101443.13;1039774;28;629;-66
2022/08/24 04:20:49;;;;;;;;;;;;;;;23.03;60.89;101449.44;1044265;28;743;-66
2022/08/24 04:21:40;;;;;;;;;;;;;;;23.03;61.16;101449.44;1045558;28;645;-66
2022/08/24 04:22:32;;;;;;;;;;;;;;;23.02;60.96;101449.59;1044872;28;610;-66
2022/08/24 04:23:23;;;;;;;;;;;;;;;23.01;60.82;101446.03;1045377;28;646;-66
2022/08/24 04:24:13;;;;;;;;;;;;;;;23.02;61.05;101442.28;1044741;28;1955;-66
2022/08/24 04:25:04;;;;;;;;;;;;;;;23.01;60.88;101450.59;1044330;28;642;-66
2022/08/24 04:25:54;;;;;;;;;;;;;;;23.00;61.24;101446.19;1044806;28;622;-66
2022/08/24 04:26:45;;;;;;;;;;;;;;;23.00;61.23;101459.78;1044959;28;661;-66
2022/08/24 04:27:35;;;;;;;;;;;;;;;23.00;61.32;101455.19;1044726;28;639;-66
2022/08/24 04:28:27;;;;;;;;;;;;;;;23.00;61.23;101447.03;1044855;28;677;-66
2022/08/24 04:29:18;;;;;;;;;;;;;;;23.01;60.86;101450.59;1044256;28;823;-66